Time;durP1;ratioP1;P1;durP2;ratioP2;P2;SDS_P1;SDS_P2;PMS_P1;PMS_P2;Temp;Humidity;BMP_temperature;BMP_pressure;BME280_temperature;BME280_humidity;BME280_pressure;Samples;Min_cycle;Max_cycle;Signal;HPM_P1;HPM_P2
2021/08/31 00:02:12;;;;;;;4.30;4.00;;;22.80;65.10;;;;;;5102614;28;20676;-68
2021/08/31 00:04:42;;;;;;;4.30;3.90;;;22.80;65.20;;;;;;5101706;28;20257;-68
2021/08/31 00:07:12;;;;;;;4.73;4.33;;;22.80;65.10;;;;;;5083366;28;20680;-69
2021/08/31 00:09:42;;;;;;;4.37;3.97;;;22.80;65.20;;;;;;5072907;28;20656;-69
2021/08/31 00:12:13;;;;;;;4.23;3.83;;;22.80;65.10;;;;;;5069650;28;20208;-69
2021/08/31 00:14:43;;;;;;;4.40;4.00;;;22.80;65.00;;;;;;5103059;28;20243;-69
2021/08/31 00:17:16;;;;;;;4.53;4.13;;;22.80;65.10;;;;;;5093051;28;20558;-70
2021/08/31 00:19:44;;;;;;;5.17;4.23;;;22.70;65.00;;;;;;5071103;28;20246;-69
2021/08/31 00:22:13;;;;;;;4.63;4.20;;;22.70;65.00;;;;;;5087404;28;20271;-70
2021/08/31 00:24:43;;;;;;;4.53;4.13;;;22.70;65.00;;;;;;5112130;27;20185;-69
2021/08/31 00:27:14;;;;;;;4.57;3.70;;;22.70;65.00;;;;;;5112628;27;20199;-71
2021/08/31 00:29:45;;;;;;;4.03;3.73;;;22.70;65.00;;;;;;5106938;28;20579;-70
2021/08/31 00:32:16;;;;;;;4.23;3.93;;;22.70;65.00;;;;;;5104958;28;20189;-70
2021/08/31 00:34:45;;;;;;;4.53;4.13;;;22.70;65.00;;;;;;5111653;28;20196;-70
2021/08/31 00:37:14;;;;;;;3.97;3.67;;;22.70;65.00;;;;;;5104638;28;20324;-69
2021/08/31 00:39:44;;;;;;;4.20;3.80;;;22.60;64.90;;;;;;5105863;28;20219;-69
2021/08/31 00:42:13;;;;;;;4.20;3.90;;;22.70;65.00;;;;;;5101694;28;20200;-69
2021/08/31 00:44:45;;;;;;;4.40;4.10;;;22.70;65.00;;;;;;5091627;27;20193;-69
2021/08/31 00:47:14;;;;;;;4.50;4.10;;;22.60;64.90;;;;;;5106372;27;20193;-69
2021/08/31 00:49:47;;;;;;;4.47;4.07;;;22.60;64.90;;;;;;5088137;28;20208;-70
2021/08/31 00:52:19;;;;;;;4.43;4.13;;;22.60;64.80;;;;;;5111114;27;20225;-70
2021/08/31 00:54:50;;;;;;;4.93;4.00;;;22.60;64.90;;;;;;5089942;28;20624;-70
2021/08/31 00:57:26;;;;;;;3.87;3.57;;;22.60;64.80;;;;;;5098504;28;20922;-70
2021/08/31 00:59:55;;;;;;;4.43;4.03;;;22.60;64.80;;;;;;5109100;27;20192;-69
2021/08/31 01:02:27;;;;;;;4.40;4.00;;;22.60;64.70;;;;;;5108585;27;20188;-70
2021/08/31 01:04:59;;;;;;;4.47;4.07;;;22.50;64.70;;;;;;5106227;28;20197;-70
2021/08/31 01:07:30;;;;;;;4.43;4.03;;;22.60;64.70;;;;;;5094255;27;20267;-70
2021/08/31 01:10:02;;;;;;;4.23;3.93;;;22.60;64.70;;;;;;5087902;28;20211;-69
2021/08/31 01:12:35;;;;;;;4.37;3.97;;;22.60;64.70;;;;;;5093651;28;20192;-69
2021/08/31 01:15:06;;;;;;;5.03;4.07;;;22.50;64.60;;;;;;5089730;28;20197;-70
2021/08/31 01:17:37;;;;;;;3.70;3.40;;;22.60;64.60;;;;;;5109545;27;20228;-70
2021/08/31 01:20:10;;;;;;;3.97;3.67;;;22.60;64.60;;;;;;5085765;28;20193;-69
2021/08/31 01:22:40;;;;;;;4.10;3.80;;;22.50;64.50;;;;;;5099508;28;20410;-70
2021/08/31 01:25:09;;;;;;;4.10;3.80;;;22.50;64.50;;;;;;5099895;27;20199;-70
2021/08/31 01:27:40;;;;;;;4.00;3.70;;;22.50;64.50;;;;;;5089404;28;20204;-69
2021/08/31 01:30:14;;;;;;;3.87;3.57;;;22.50;64.50;;;;;;5112220;27;20248;-69
2021/08/31 01:32:42;;;;;;;4.13;3.73;;;22.50;64.50;;;;;;5103810;27;20219;-70
2021/08/31 01:35:12;;;;;;;4.40;4.00;;;22.50;64.40;;;;;;5106803;28;20196;-69
2021/08/31 01:37:42;;;;;;;4.13;3.83;;;22.50;64.40;;;;;;5082661;28;20242;-70
2021/08/31 01:40:22;;;;;;;4.23;3.93;;;22.50;64.40;;;;;;5095010;28;20196;-69
2021/08/31 01:42:50;;;;;;;4.13;3.80;;;22.50;64.40;;;;;;5107201;28;20499;-71
2021/08/31 01:45:27;;;;;;;4.47;4.07;;;22.50;64.40;;;;;;5080743;28;20215;-70
2021/08/31 01:47:59;;;;;;;3.87;3.50;;;22.50;64.40;;;;;;5086401;28;20188;-71
2021/08/31 01:50:31;;;;;;;4.27;3.87;;;22.40;64.30;;;;;;5104085;28;20197;-69
2021/08/31 01:52:59;;;;;;;4.33;3.93;;;22.50;64.40;;;;;;5105587;28;20534;-69
2021/08/31 01:55:32;;;;;;;4.43;3.83;;;22.40;64.30;;;;;;5099496;28;20626;-70
2021/08/31 01:58:02;;;;;;;3.60;3.30;;;22.40;64.30;;;;;;5076037;28;20692;-70
2021/08/31 02:00:34;;;;;;;3.50;3.20;;;22.40;64.30;;;;;;5092156;28;20498;-69
2021/08/31 02:03:04;;;;;;;3.83;3.53;;;22.40;64.30;;;;;;5088794;28;20208;-70
2021/08/31 02:05:33;;;;;;;3.80;3.50;;;22.40;64.30;;;;;;5091122;28;20201;-70
2021/08/31 02:08:05;;;;;;;3.67;3.37;;;22.40;64.30;;;;;;5065631;28;20212;-70
2021/08/31 02:10:37;;;;;;;3.97;3.60;;;22.40;64.30;;;;;;5097970;28;20196;-70
2021/08/31 02:13:08;;;;;;;4.47;4.07;;;22.40;64.30;;;;;;5085544;28;20833;-70
2021/08/31 02:15:39;;;;;;;3.60;3.30;;;22.40;64.30;;;;;;5107140;28;20723;-69
2021/08/31 02:18:09;;;;;;;4.27;3.87;;;22.40;64.30;;;;;;5109563;28;20255;-70
2021/08/31 02:20:38;;;;;;;3.97;3.67;;;22.30;64.20;;;;;;5088905;28;20208;-70
2021/08/31 02:23:07;;;;;;;3.80;3.50;;;22.40;64.30;;;;;;5095445;28;20547;-70
2021/08/31 02:25:40;;;;;;;4.30;3.90;;;22.40;64.30;;;;;;5083162;28;20197;-70
2021/08/31 02:28:12;;;;;;;4.30;4.00;;;22.40;64.30;;;;;;5095024;28;20219;-69
2021/08/31 02:30:42;;;;;;;4.50;4.10;;;22.40;64.30;;;;;;5101265;28;20208;-69
2021/08/31 02:33:15;;;;;;;3.97;3.67;;;22.40;64.20;;;;;;5099633;28;20188;-70
2021/08/31 02:35:45;;;;;;;4.23;3.50;;;22.30;64.20;;;;;;5098656;28;20193;-70
2021/08/31 02:38:17;;;;;;;4.10;3.80;;;22.40;64.20;;;;;;5100580;28;20217;-70
2021/08/31 02:40:47;;;;;;;4.97;4.43;;;22.30;64.20;;;;;;5071293;28;20208;-69
2021/08/31 02:43:22;;;;;;;4.17;3.80;;;22.30;64.10;;;;;;5082133;28;20296;-70
2021/08/31 02:45:54;;;;;;;3.70;3.40;;;22.30;64.10;;;;;;5118977;27;20574;-70
2021/08/31 02:48:24;;;;;;;4.10;3.80;;;22.30;64.10;;;;;;5070748;28;20279;-70
2021/08/31 02:50:56;;;;;;;4.00;3.70;;;22.30;64.10;;;;;;5061170;28;20333;-70
2021/08/31 02:53:25;;;;;;;4.07;3.77;;;22.30;64.10;;;;;;5087900;27;20204;-70
2021/08/31 02:55:55;;;;;;;3.90;3.60;;;22.30;64.10;;;;;;5104442;28;20657;-70
2021/08/31 02:58:27;;;;;;;3.97;3.63;;;22.30;64.10;;;;;;5103886;27;20219;-70
2021/08/31 03:04:03;;;;;;;4.00;3.70;;;22.30;64.80;;;;;;5015651;28;20865;-69
2021/08/31 03:06:33;;;;;;;3.93;3.53;;;22.30;64.10;;;;;;5025714;28;20215;-70
2021/08/31 03:09:05;;;;;;;3.67;3.37;;;22.30;64.10;;;;;;5086773;28;20205;-70
2021/08/31 03:11:35;;;;;;;4.33;4.03;;;22.30;64.10;;;;;;5105491;27;20196;-70
2021/08/31 03:14:08;;;;;;;4.37;3.97;;;22.30;64.10;;;;;;5081366;28;20197;-70
2021/08/31 03:16:39;;;;;;;3.77;3.47;;;22.30;64.10;;;;;;5103969;28;20196;-70
2021/08/31 03:19:15;;;;;;;4.57;3.90;;;22.20;64.10;;;;;;5102708;28;20239;-70
2021/08/31 03:21:44;;;;;;;3.80;3.50;;;22.20;64.10;;;;;;5102089;28;20227;-70
2021/08/31 03:24:10;;;;;;;3.73;3.43;;;22.30;64.10;;;;;;5087054;28;20188;-70
2021/08/31 03:26:42;;;;;;;3.77;3.47;;;22.20;64.10;;;;;;5084177;28;20299;-70
2021/08/31 03:29:12;;;;;;;3.80;3.50;;;22.20;64.10;;;;;;5060579;28;20205;-70
2021/08/31 03:31:46;;;;;;;4.07;3.73;;;22.20;64.10;;;;;;5086002;28;20773;-70
2021/08/31 03:34:15;;;;;;;3.70;3.40;;;22.20;64.10;;;;;;5088865;28;20279;-70
2021/08/31 03:36:50;;;;;;;3.73;3.43;;;22.20;64.10;;;;;;5089650;28;20243;-70
2021/08/31 03:39:19;;;;;;;4.30;3.80;;;22.20;64.10;;;;;;5099686;28;20195;-70
2021/08/31 03:41:52;;;;;;;3.97;3.67;;;22.20;64.70;;;;;;5103337;28;20193;-70
2021/08/31 03:44:26;;;;;;;4.33;3.97;;;22.20;64.10;;;;;;5101233;28;20195;-70
2021/08/31 03:46:56;;;;;;;4.13;3.73;;;22.20;64.10;;;;;;5095584;28;20193;-68
2021/08/31 03:49:25;;;;;;;4.27;3.87;;;22.20;64.10;;;;;;5104933;28;20204;-69
2021/08/31 03:51:54;;;;;;;4.43;4.03;;;22.20;64.10;;;;;;5102742;27;20188;-69
2021/08/31 03:54:24;;;;;;;4.30;4.00;;;22.20;64.10;;;;;;5092431;28;20211;-68
2021/08/31 03:56:54;;;;;;;3.80;3.50;;;22.20;64.00;;;;;;5100707;28;20212;-68
2021/08/31 03:59:26;;;;;;;4.37;4.03;;;22.20;64.00;;;;;;5111087;27;20205;-69
2021/08/31 04:01:55;;;;;;;4.30;3.90;;;22.20;64.10;;;;;;5109973;28;20649;-69
2021/08/31 04:04:29;;;;;;;4.10;3.80;;;22.20;64.10;;;;;;5094326;28;20195;-70
2021/08/31 04:06:59;;;;;;;4.33;3.60;;;22.20;64.10;;;;;;5108005;28;20203;-70
2021/08/31 04:09:33;;;;;;;4.17;3.87;;;22.20;64.10;;;;;;5117346;27;20210;-70
2021/08/31 04:12:15;;;;;;;3.93;3.63;;;22.20;64.10;;;;;;5098366;27;20199;-70
2021/08/31 04:14:45;;;;;;;4.23;3.83;;;22.20;64.10;;;;;;5108067;27;20280;-69
2021/08/31 04:17:16;;;;;;;3.83;3.53;;;22.10;64.00;;;;;;5100486;28;20220;-69
2021/08/31 04:19:46;;;;;;;4.87;4.37;;;22.20;64.00;;;;;;5074779;28;20532;-69
2021/08/31 04:22:15;;;;;;;4.47;4.07;;;22.20;64.00;;;;;;5092801;27;20207;-70
2021/08/31 04:24:44;;;;;;;4.00;3.67;;;22.20;64.00;;;;;;5106538;27;20245;-70
2021/08/31 04:27:14;;;;;;;3.53;3.23;;;22.20;64.00;;;;;;5094498;27;20212;-69
2021/08/31 04:29:42;;;;;;;4.43;4.03;;;22.20;64.00;;;;;;5098988;28;20625;-70
2021/08/31 04:32:11;;;;;;;5.33;4.50;;;22.20;64.00;;;;;;5092222;28;20277;-69
2021/08/31 04:34:40;;;;;;;4.33;4.00;;;22.20;64.00;;;;;;5086507;28;20184;-69
2021/08/31 04:37:08;;;;;;;4.90;4.50;;;22.20;64.00;;;;;;5107708;27;20241;-69
2021/08/31 04:39:45;;;;;;;5.13;4.63;;;22.20;64.00;;;;;;5112633;27;20200;-69
2021/08/31 04:42:21;;;;;;;6.00;4.43;;;22.20;64.00;;;;;;5102799;27;20200;-69
2021/08/31 04:44:53;;;;;;;5.00;4.60;;;22.20;64.00;;;;;;5103276;28;20269;-69
2021/08/31 04:47:21;;;;;;;4.50;4.10;;;22.20;64.00;;;;;;5098497;28;20220;-69
2021/08/31 04:49:51;;;;;;;4.70;4.30;;;22.20;64.00;;;;;;5092612;28;20196;-69
2021/08/31 04:52:21;;;;;;;4.97;4.47;;;22.20;64.00;;;;;;5103992;27;20204;-69
2021/08/31 04:54:51;;;;;;;4.80;4.40;;;22.20;64.00;;;;;;5107569;27;20250;-69
2021/08/31 04:57:25;;;;;;;4.80;4.40;;;22.20;64.00;;;;;;5108197;28;20571;-69
2021/08/31 04:59:55;;;;;;;5.33;4.20;;;22.20;64.00;;;;;;5106829;27;20204;-69
2021/08/31 05:02:25;;;;;;;5.77;4.57;;;22.10;63.90;;;;;;5101304;27;20215;-69
2021/08/31 05:04:56;;;;;;;5.40;4.90;;;22.10;63.90;;;;;;5108807;27;20200;-69
2021/08/31 05:07:27;;;;;;;5.47;4.97;;;22.10;63.90;;;;;;5104967;28;20200;-69
2021/08/31 05:09:56;;;;;;;4.77;4.37;;;22.10;63.90;;;;;;5103819;27;20201;-69
2021/08/31 05:12:25;;;;;;;5.33;4.83;;;22.10;63.90;;;;;;5103568;28;20287;-68
2021/08/31 05:14:55;;;;;;;5.60;4.47;;;22.10;63.90;;;;;;5106039;28;20204;-69
2021/08/31 05:17:28;;;;;;;6.50;5.10;;;22.10;63.90;;;;;;5103093;28;20212;-69
2021/08/31 05:19:58;;;;;;;5.50;5.03;;;22.20;63.90;;;;;;5085464;28;20524;-69
2021/08/31 05:22:29;;;;;;;5.37;4.87;;;22.10;63.90;;;;;;5082632;28;20210;-69
2021/08/31 05:25:03;;;;;;;5.37;4.87;;;22.10;64.50;;;;;;5088902;28;20188;-69
2021/08/31 05:27:39;;;;;;;5.70;5.20;;;22.10;63.90;;;;;;5102974;28;20212;-69
2021/08/31 05:30:10;;;;;;;5.50;5.00;;;22.10;63.90;;;;;;5100870;27;20213;-68
2021/08/31 05:32:41;;;;;;;5.70;5.20;;;22.10;63.90;;;;;;5103581;27;20209;-68
2021/08/31 05:35:12;;;;;;;5.80;5.30;;;22.10;63.90;;;;;;5107525;27;20199;-69
2021/08/31 05:37:42;;;;;;;5.37;4.93;;;22.10;63.90;;;;;;5106349;27;20294;-69
2021/08/31 05:40:14;;;;;;;5.30;4.90;;;22.10;63.90;;;;;;5083459;27;20196;-69
2021/08/31 05:42:46;;;;;;;5.10;4.70;;;22.10;63.90;;;;;;5106911;28;20666;-69
2021/08/31 05:45:28;;;;;;;5.40;4.90;;;22.10;63.90;;;;;;5099148;28;20665;-69
2021/08/31 05:48:11;;;;;;;6.00;5.50;;;22.10;63.90;;;;;;5100559;27;20726;-70
2021/08/31 05:50:43;;;;;;;7.10;5.33;;;22.20;63.90;;;;;;5096357;27;20299;-69
2021/08/31 05:53:27;;;;;;;26.63;11.30;;;22.10;63.90;;;;;;5083882;28;20283;-68
2021/08/31 05:56:04;;;;;;;50.07;14.87;;;22.10;64.80;;;;;;5108298;28;20209;-69
2021/08/31 05:58:35;;;;;;;45.90;16.23;;;22.20;65.30;;;;;;5106564;28;20216;-69
2021/08/31 06:01:08;;;;;;;46.27;15.83;;;22.20;65.50;;;;;;5105758;28;20208;-66
2021/08/31 06:03:42;;;;;;;44.13;14.60;;;22.20;65.50;;;;;;5082329;28;20641;-72
2021/08/31 06:06:16;;;;;;;42.27;13.83;;;22.30;65.60;;;;;;5104336;27;20538;-68
2021/08/31 06:08:48;;;;;;;39.00;14.13;;;22.30;66.00;;;;;;5091686;28;20199;-68
2021/08/31 06:11:22;;;;;;;31.70;13.37;;;22.40;66.00;;;;;;5102233;28;20233;-66
2021/08/31 06:13:54;;;;;;;38.13;13.37;;;22.40;66.80;;;;;;5100089;27;20197;-66
2021/08/31 06:16:23;;;;;;;33.50;11.77;;;22.40;66.00;;;;;;5104516;28;20552;-69
2021/08/31 06:19:00;;;;;;;26.17;12.23;;;22.50;66.00;;;;;;5108742;28;20247;-68
2021/08/31 06:21:35;;;;;;;28.10;10.93;;;22.60;65.90;;;;;;5090831;28;20209;-67
2021/08/31 06:24:04;;;;;;;23.43;11.53;;;22.60;65.80;;;;;;5134846;27;20201;-68
2021/08/31 06:26:34;;;;;;;24.20;10.23;;;22.60;65.50;;;;;;5091849;27;20637;-69
2021/08/31 06:29:07;;;;;;;20.30;10.47;;;22.60;65.40;;;;;;5112670;28;20219;-69
2021/08/31 06:31:37;;;;;;;17.40;9.83;;;22.60;65.30;;;;;;5111413;27;20204;-66
2021/08/31 06:34:07;;;;;;;18.20;9.13;;;22.60;65.40;;;;;;5108833;28;20232;-67
2021/08/31 06:36:36;;;;;;;17.57;9.00;;;22.70;65.40;;;;;;5103542;28;20558;-68
2021/08/31 06:39:07;;;;;;;14.47;8.73;;;22.80;65.20;;;;;;5090557;28;20216;-68
2021/08/31 06:41:38;;;;;;;14.43;9.07;;;22.80;65.00;;;;;;5109729;27;20202;-67
2021/08/31 06:44:15;;;;;;;12.13;8.03;;;22.80;64.80;;;;;;5107424;27;20192;-65
2021/08/31 06:46:43;;;;;;;16.97;8.67;;;22.80;64.70;;;;;;5072543;28;20656;-69
2021/08/31 06:49:14;;;;;;;21.00;8.03;;;22.90;64.60;;;;;;5107176;27;20212;-65
2021/08/31 06:51:46;;;;;;;12.20;7.50;;;22.90;64.60;;;;;;5080803;28;20212;-66
2021/08/31 06:54:15;;;;;;;19.33;8.23;;;22.90;64.30;;;;;;5078021;28;20197;-66
2021/08/31 06:56:46;;;;;;;11.63;7.50;;;22.90;64.10;;;;;;5099228;28;20206;-66
2021/08/31 06:59:17;;;;;;;10.40;7.23;;;23.00;64.20;;;;;;5086294;28;20217;-66
2021/08/31 07:01:49;;;;;;;12.27;7.23;;;23.00;64.10;;;;;;5077047;28;20196;-65
2021/08/31 07:04:18;;;;;;;11.63;7.40;;;23.00;64.10;;;;;;5104797;28;20231;-66
2021/08/31 07:06:46;;;;;;;11.20;7.40;;;23.00;63.90;;;;;;5107153;27;20184;-68
2021/08/31 07:09:15;;;;;;;12.50;6.63;;;23.00;63.90;;;;;;5085405;28;20306;-68
2021/08/31 07:11:47;;;;;;;8.70;6.77;;;23.00;63.90;;;;;;5105043;28;20206;-67
2021/08/31 07:14:18;;;;;;;10.87;7.20;;;23.10;63.60;;;;;;5105948;28;20293;-70
2021/08/31 07:16:49;;;;;;;7.27;6.57;;;23.10;63.40;;;;;;5082695;28;20216;-67
2021/08/31 07:19:21;;;;;;;8.93;7.17;;;23.10;63.20;;;;;;5103829;27;20207;-68
2021/08/31 07:21:52;;;;;;;9.87;6.57;;;23.10;63.20;;;;;;5105716;27;20574;-66
2021/08/31 07:24:23;;;;;;;8.00;6.07;;;23.10;63.10;;;;;;5103764;28;20278;-67
2021/08/31 07:26:52;;;;;;;7.67;6.17;;;23.10;63.10;;;;;;5061544;28;20196;-68
2021/08/31 07:29:21;;;;;;;9.27;6.43;;;23.10;63.20;;;;;;5091462;28;20196;-68
2021/08/31 07:32:00;;;;;;;8.53;6.70;;;23.10;63.20;;;;;;5105694;28;20544;-70
2021/08/31 07:34:32;;;;;;;9.00;6.13;;;23.10;63.00;;;;;;5120000;28;20203;-67
2021/08/31 07:37:00;;;;;;;10.57;5.43;;;23.10;63.00;;;;;;5085555;28;20228;-70
2021/08/31 07:39:44;;;;;;;6.17;5.37;;;23.20;63.60;;;;;;5086102;28;20299;-69
2021/08/31 07:42:15;;;;;;;7.53;5.23;;;23.30;63.90;;;;;;5107208;28;20210;-67
2021/08/31 07:44:46;;;;;;;13.73;5.50;;;23.40;64.50;;;;;;5098785;28;20287;-68
2021/08/31 07:47:17;;;;;;;6.27;4.97;;;23.50;64.00;;;;;;5103637;28;20200;-69
2021/08/31 07:50:03;;;;;;;7.77;5.00;;;23.50;64.00;;;;;;5089933;28;20193;-68
2021/08/31 07:52:47;;;;;;;8.23;4.83;;;23.60;63.90;;;;;;5086645;28;20657;-69
2021/08/31 07:55:21;;;;;;;6.77;5.10;;;23.60;63.80;;;;;;5103133;28;20735;-68
2021/08/31 07:57:52;;;;;;;6.33;4.87;;;23.70;63.70;;;;;;5102805;28;20787;-70
2021/08/31 08:00:24;;;;;;;7.07;4.83;;;23.70;63.60;;;;;;5079183;28;20524;-71
2021/08/31 08:02:59;;;;;;;6.67;4.80;;;23.70;62.60;;;;;;5087627;28;20207;-71
2021/08/31 08:05:28;;;;;;;5.83;5.23;;;23.70;61.70;;;;;;5096270;28;20846;-69
2021/08/31 08:08:00;;;;;;;4.87;4.37;;;23.60;62.30;;;;;;5106035;28;20207;-69
2021/08/31 08:10:32;;;;;;;5.30;4.80;;;23.60;62.80;;;;;;5085760;28;20208;-67
2021/08/31 08:13:03;;;;;;;5.73;4.43;;;23.70;63.00;;;;;;5094230;28;20256;-66
2021/08/31 08:15:33;;;;;;;4.97;4.47;;;23.70;62.90;;;;;;5098590;28;20207;-69
2021/08/31 08:18:04;;;;;;;5.17;4.20;;;23.70;62.80;;;;;;5104297;28;20216;-69
2021/08/31 08:20:33;;;;;;;6.33;4.97;;;23.80;62.90;;;;;;5103059;28;20245;-68
2021/08/31 08:23:02;;;;;;;6.10;4.33;;;23.80;62.90;;;;;;5083806;28;20205;-68
2021/08/31 08:25:32;;;;;;;5.60;4.40;;;23.80;62.80;;;;;;5104890;28;20315;-69
2021/08/31 08:28:23;;;;;;;5.60;5.00;;;23.80;62.80;;;;;;5102076;28;20196;-68
2021/08/31 08:30:53;;;;;;;4.50;4.03;;;23.90;62.80;;;;;;5106150;28;20216;-69
2021/08/31 08:33:25;;;;;;;4.77;3.97;;;23.90;62.80;;;;;;5070588;28;20226;-69
2021/08/31 08:35:54;;;;;;;4.90;4.10;;;23.90;62.80;;;;;;5104064;28;20212;-67
2021/08/31 08:38:22;;;;;;;5.37;3.77;;;23.90;62.80;;;;;;5108910;28;20212;-67
2021/08/31 08:40:55;;;;;;;4.70;4.10;;;24.00;62.80;;;;;;5110341;28;20206;-71
2021/08/31 08:43:26;;;;;;;6.37;4.13;;;24.00;62.80;;;;;;5076529;28;20198;-69
2021/08/31 08:46:00;;;;;;;6.87;3.90;;;24.00;62.60;;;;;;5109712;28;20198;-69
2021/08/31 08:48:31;;;;;;;6.50;3.83;;;24.10;62.70;;;;;;5093889;28;20196;-68
2021/08/31 08:51:05;;;;;;;5.77;3.83;;;24.10;62.70;;;;;;5092752;28;20836;-68
2021/08/31 08:53:37;;;;;;;4.97;3.73;;;24.10;62.60;;;;;;5095779;28;20188;-69
2021/08/31 08:56:04;;;;;;;4.13;3.73;;;24.10;62.60;;;;;;5089651;28;20204;-67
2021/08/31 08:58:37;;;;;;;4.03;3.53;;;24.10;62.80;;;;;;5108341;28;20235;-68
2021/08/31 09:01:23;;;;;;;7.67;3.27;;;24.20;62.60;;;;;;5099559;28;20280;-67
2021/08/31 09:03:58;;;;;;;3.67;3.37;;;24.20;62.50;;;;;;5109576;28;20646;-67
2021/08/31 09:06:29;;;;;;;3.87;3.10;;;24.30;62.40;;;;;;5106677;28;20203;-69
2021/08/31 09:09:03;;;;;;;3.60;3.23;;;24.30;62.30;;;;;;5103802;28;20216;-67
2021/08/31 09:11:46;;;;;;;4.47;3.20;;;24.30;62.30;;;;;;5093506;28;20203;-69
2021/08/31 09:14:34;;;;;;;3.73;3.37;;;24.40;62.30;;;;;;5085661;28;20211;-69
2021/08/31 09:17:08;;;;;;;4.03;3.10;;;24.40;62.30;;;;;;5085441;28;20204;-71
2021/08/31 09:19:42;;;;;;;3.30;2.83;;;24.40;62.30;;;;;;5094113;28;20266;-70
2021/08/31 09:22:26;;;;;;;3.83;3.43;;;24.40;62.30;;;;;;5076154;28;20207;-69
2021/08/31 09:25:11;;;;;;;3.90;3.27;;;24.40;62.20;;;;;;5108051;28;20620;-70
2021/08/31 09:27:51;;;;;;;3.63;3.33;;;24.40;62.10;;;;;;5096573;28;20504;-68
2021/08/31 09:30:25;;;;;;;5.40;3.37;;;24.40;62.00;;;;;;5093664;28;20268;-66
2021/08/31 09:33:09;;;;;;;4.27;3.60;;;24.40;62.00;;;;;;5108159;28;20199;-68
2021/08/31 09:36:09;;;;;;;5.57;3.30;;;24.50;62.10;;;;;;5092434;28;20207;-69
2021/08/31 09:39:02;;;;;;;4.03;3.30;;;24.50;62.10;;;;;;5105811;27;20213;-68
2021/08/31 09:41:34;;;;;;;4.17;3.30;;;24.50;62.00;;;;;;5101702;28;20230;-71
2021/08/31 09:44:23;;;;;;;6.50;3.10;;;24.60;62.10;;;;;;5107602;28;20199;-69
2021/08/31 09:47:02;;;;;;;4.90;3.40;;;24.60;62.00;;;;;;5105711;27;20215;-70
2021/08/31 09:49:37;;;;;;;5.67;3.03;;;24.60;62.00;;;;;;5080329;28;20721;-69
2021/08/31 09:52:15;;;;;;;4.10;3.10;;;24.60;62.00;;;;;;5087101;28;20204;-70
2021/08/31 09:54:52;;;;;;;3.77;2.80;;;24.60;61.90;;;;;;5093122;28;20208;-69
2021/08/31 09:57:41;;;;;;;5.07;3.07;;;24.60;61.80;;;;;;5107874;28;20212;-72
2021/08/31 10:00:13;;;;;;;3.07;2.70;;;24.60;61.80;;;;;;5091544;28;20923;-68
2021/08/31 10:02:48;;;;;;;3.70;3.23;;;24.60;61.80;;;;;;5110559;28;20543;-70
2021/08/31 10:05:21;;;;;;;4.37;2.90;;;24.60;61.80;;;;;;5109299;28;20204;-67
2021/08/31 10:07:52;;;;;;;5.30;2.77;;;24.70;61.80;;;;;;5099929;28;20205;-69
2021/08/31 10:10:22;;;;;;;3.10;2.47;;;24.70;61.70;;;;;;5093430;27;20220;-69
2021/08/31 10:12:55;;;;;;;3.07;2.77;;;24.70;61.60;;;;;;5059880;28;20227;-68
2021/08/31 10:15:26;;;;;;;4.37;2.83;;;24.80;61.60;;;;;;5089205;28;20221;-68
2021/08/31 10:17:57;;;;;;;2.93;2.63;;;24.70;61.60;;;;;;5102079;27;20850;-71
2021/08/31 10:20:34;;;;;;;3.47;2.77;;;24.80;61.60;;;;;;5107238;28;20932;-67
2021/08/31 10:23:15;;;;;;;3.60;2.80;;;24.80;61.60;;;;;;5076145;28;20213;-67
2021/08/31 10:25:45;;;;;;;4.43;2.97;;;24.90;61.60;;;;;;5104327;28;20196;-69
2021/08/31 10:28:28;;;;;;;4.00;3.50;;;24.80;59.30;;;;;;5096531;27;20208;-69
2021/08/31 10:30:59;;;;;;;4.27;3.60;;;24.70;59.30;;;;;;5087465;28;20211;-68
2021/08/31 10:33:49;;;;;;;4.20;3.67;;;24.60;59.60;;;;;;5099377;28;20197;-68
2021/08/31 10:36:54;;;;;;;3.70;3.30;;;24.50;59.90;;;;;;5085374;28;20265;-68
2021/08/31 10:39:55;;;;;;;3.77;2.93;;;24.40;60.20;;;;;;5105529;28;20295;-68
2021/08/31 10:42:36;;;;;;;3.90;3.50;;;24.30;60.50;;;;;;5103693;28;20212;-68
2021/08/31 10:45:28;;;;;;;5.27;3.70;;;24.30;60.60;;;;;;5109363;28;20633;-68
2021/08/31 10:47:58;;;;;;;3.93;3.27;;;24.20;60.80;;;;;;5083735;28;20261;-69
2021/08/31 10:50:30;;;;;;;4.10;3.33;;;24.10;60.90;;;;;;5091161;28;20611;-67
2021/08/31 10:53:06;;;;;;;4.75;3.80;;;24.10;61.00;;;;;;5089888;28;20448;-65
2021/08/31 10:55:46;;;;;;;3.67;3.33;;;24.20;61.10;;;;;;5091610;28;20196;-67
2021/08/31 10:58:42;;;;;;;3.40;2.90;;;24.20;61.90;;;;;;5099535;28;20292;-67
2021/08/31 11:01:14;;;;;;;3.50;3.20;;;24.30;62.10;;;;;;5068294;28;20196;-68
2021/08/31 11:03:48;;;;;;;4.23;3.23;;;24.30;62.20;;;;;;5077946;28;20191;-69
2021/08/31 11:06:33;;;;;;;4.30;3.27;;;24.40;62.10;;;;;;5106565;28;20743;-71
2021/08/31 11:09:09;;;;;;;4.37;3.27;;;24.40;62.10;;;;;;5101517;28;20250;-67
2021/08/31 11:12:05;;;;;;;3.33;2.97;;;24.40;62.10;;;;;;5103353;28;20689;-68
2021/08/31 11:14:44;;;;;;;4.33;2.87;;;24.50;62.10;;;;;;5098942;28;20211;-68
2021/08/31 11:17:40;;;;;;;3.77;3.00;;;24.50;62.10;;;;;;5108592;28;20204;-68
2021/08/31 11:20:33;;;;;;;3.77;2.90;;;24.60;62.10;;;;;;5101613;28;20216;-68
2021/08/31 11:23:21;;;;;;;3.93;3.10;;;24.60;62.00;;;;;;5104181;28;20189;-67
2021/08/31 11:26:01;;;;;;;3.33;2.83;;;24.60;62.00;;;;;;5103731;28;20610;-70
2021/08/31 11:28:33;;;;;;;4.20;3.17;;;24.70;62.00;;;;;;5075493;28;20509;-71
2021/08/31 11:31:15;;;;;;;4.43;3.10;;;24.70;62.00;;;;;;5086897;28;20211;-71
2021/08/31 11:33:46;;;;;;;4.97;3.20;;;24.70;61.90;;;;;;5087567;28;20219;-71
2021/08/31 11:36:24;;;;;;;3.40;3.10;;;24.70;60.00;;;;;;5084903;28;20276;-74
2021/08/31 11:38:57;;;;;;;3.93;3.40;;;24.60;60.00;;;;;;5105215;28;20232;-74
2021/08/31 11:41:40;;;;;;;4.07;3.40;;;24.50;60.20;;;;;;5104603;28;20625;-71
2021/08/31 11:44:22;;;;;;;4.10;3.37;;;24.40;60.50;;;;;;5104050;28;20212;-67
2021/08/31 11:46:56;;;;;;;3.40;3.10;;;24.30;60.60;;;;;;5102068;28;20191;-67
2021/08/31 11:49:31;;;;;;;3.47;3.17;;;24.40;60.60;;;;;;5089919;28;20223;-67
2021/08/31 11:52:15;;;;;;;6.43;3.10;;;24.50;60.40;;;;;;5085690;28;20203;-67
2021/08/31 11:54:56;;;;;;;3.50;3.20;;;24.50;61.00;;;;;;5106474;28;20299;-69
2021/08/31 11:57:33;;;;;;;5.43;3.17;;;24.60;61.10;;;;;;5090882;28;20188;-69
2021/08/31 12:00:05;;;;;;;7.20;3.83;;;24.60;61.10;;;;;;5086475;28;20433;-68
2021/08/31 12:02:41;;;;;;;4.80;3.20;;;24.60;61.20;;;;;;5105634;28;20203;-69
2021/08/31 12:05:16;;;;;;;3.80;2.97;;;24.60;61.90;;;;;;5102358;28;20663;-72
2021/08/31 12:07:49;;;;;;;4.43;3.47;;;24.60;61.20;;;;;;5089954;28;20196;-68
2021/08/31 12:10:25;;;;;;;3.43;3.10;;;24.60;60.60;;;;;;5107682;28;20641;-66
2021/08/31 12:12:58;;;;;;;5.20;3.70;;;24.60;60.40;;;;;;5100753;28;20196;-65
2021/08/31 12:15:31;;;;;;;5.03;3.37;;;24.50;60.60;;;;;;5101476;28;20206;-66
2021/08/31 12:18:06;;;;;;;4.03;2.97;;;24.50;60.80;;;;;;5108973;28;20212;-67
2021/08/31 12:20:41;;;;;;;5.13;3.30;;;24.50;61.20;;;;;;5093194;28;20656;-67
2021/08/31 12:23:16;;;;;;;4.07;3.17;;;24.50;61.10;;;;;;5106489;28;20206;-64
2021/08/31 12:25:53;;;;;;;3.67;3.37;;;24.50;61.20;;;;;;5108392;28;20200;-65
2021/08/31 12:28:23;;;;;;;3.10;2.80;;;24.50;61.20;;;;;;5101182;28;20198;-68
2021/08/31 12:30:53;;;;;;;3.93;3.20;;;24.50;61.60;;;;;;5107992;28;20281;-68
2021/08/31 12:33:32;;;;;;;4.30;2.90;;;24.60;62.10;;;;;;5102253;28;20223;-67
2021/08/31 12:36:11;;;;;;;3.20;2.90;;;24.60;62.50;;;;;;5107500;28;20200;-66
2021/08/31 12:38:50;;;;;;;5.33;3.07;;;24.70;62.60;;;;;;5099554;28;20309;-66
2021/08/31 12:41:37;;;;;;;3.60;3.03;;;24.70;62.60;;;;;;5086024;28;20196;-66
2021/08/31 12:44:22;;;;;;;5.43;2.53;;;24.80;62.50;;;;;;5086685;28;20284;-68
2021/08/31 12:47:08;;;;;;;2.93;2.73;;;24.90;62.60;;;;;;5105543;27;20180;-67
2021/08/31 12:49:37;;;;;;;3.20;2.63;;;24.90;62.50;;;;;;5109001;28;20657;-67
2021/08/31 12:52:17;;;;;;;3.53;2.77;;;24.90;62.60;;;;;;5083695;28;20265;-66
2021/08/31 12:55:13;;;;;;;3.63;2.33;;;25.00;63.50;;;;;;5103167;28;20204;-67
2021/08/31 12:57:44;;;;;;;5.07;2.47;;;25.00;62.40;;;;;;5081922;28;20223;-66
2021/08/31 13:00:25;;;;;;;2.90;2.47;;;25.00;62.30;;;;;;5058939;28;20724;-67
2021/08/31 13:02:56;;;;;;;3.63;2.50;;;25.10;62.40;;;;;;5099619;28;20201;-67
2021/08/31 13:05:34;;;;;;;4.77;2.43;;;25.10;63.00;;;;;;5109407;28;20197;-67
2021/08/31 13:08:11;;;;;;;2.60;2.40;;;25.20;62.40;;;;;;5085348;28;20261;-68
2021/08/31 13:10:38;;;;;;;3.37;2.57;;;25.10;62.40;;;;;;5107208;27;20548;-67
2021/08/31 13:13:08;;;;;;;3.40;2.73;;;25.20;62.40;;;;;;5090150;28;20371;-69
2021/08/31 13:15:40;;;;;;;3.43;2.47;;;25.20;62.30;;;;;;5099571;28;20200;-70
2021/08/31 13:18:13;;;;;;;3.60;2.40;;;25.20;62.20;;;;;;5109993;28;20204;-69
2021/08/31 13:20:44;;;;;;;4.03;2.70;;;25.30;62.30;;;;;;5090047;28;20307;-67
2021/08/31 13:23:28;;;;;;;5.40;3.00;;;25.30;62.30;;;;;;5103321;28;20220;-69